CPX230 Details

Departure: Chicago/Rockford International Airport (KRFD)
Arrival: Phoenix Sky Harbor International Airport (KPHX) at N/A
Route: DBQ J144 DSM OVR GLD ALS GUP EAGUL6
Notes:


Current Weather Information
KRFD 231154Z 21007KT 10SM FEW250 04/00 A2990 RMK AO2 SLP130 T00390000 10067 20039 51022
KPHX 231151Z 11005KT 10SM FEW250 18/01 A2990 RMK AO2 SLP109 7//// T01780006 10233 20178 55005